Time;durP1;ratioP1;P1;durP2;ratioP2;P2;SDS_P1;SDS_P2;PMS_P1;PMS_P2;Temp;Humidity;BMP_temperature;BMP_pressure;BME280_temperature;BME280_humidity;BME280_pressure;Samples;Min_cycle;Max_cycle;Signal;HPM_P1;HPM_P2
2023/01/25 00:00:22;;;;;;;164.77;58.20;;;1.70;99.90;;;;;;8263825;28;20235;-64
2023/01/25 00:04:23;;;;;;;119.77;49.50;;;1.70;99.90;;;;;;8262194;28;20268;-64
2023/01/25 00:08:24;;;;;;;162.33;56.60;;;1.70;99.90;;;;;;8270474;28;20187;-64
2023/01/25 00:12:25;;;;;;;96.10;43.27;;;1.70;99.90;;;;;;8271312;28;20193;-64
2023/01/25 00:16:26;;;;;;;153.80;55.17;;;1.70;99.90;;;;;;8261640;28;20214;-64
2023/01/25 00:20:26;;;;;;;162.90;56.53;;;1.70;99.90;;;;;;8264889;28;20210;-63
2023/01/25 00:24:27;;;;;;;90.00;41.87;;;1.70;99.90;;;;;;8262331;28;20546;-63
2023/01/25 00:28:28;;;;;;;92.00;41.73;;;1.60;99.90;;;;;;8268522;28;20196;-63
2023/01/25 00:32:55;;;;;;;100.57;43.33;;;1.60;99.90;;;;;;8270716;28;20188;-63
2023/01/25 00:36:56;;;;;;;78.37;37.60;;;1.60;99.90;;;;;;8268582;28;20214;-63
2023/01/25 00:40:57;;;;;;;96.83;42.53;;;1.60;99.90;;;;;;8270390;28;20206;-63
2023/01/25 00:44:58;;;;;;;94.73;41.23;;;1.60;99.90;;;;;;8263046;28;20556;-63
2023/01/25 00:48:59;;;;;;;77.43;38.10;;;1.60;99.90;;;;;;8262224;28;20330;-63
2023/01/25 00:53:00;;;;;;;94.70;41.77;;;1.60;99.90;;;;;;8267333;28;20192;-63
2023/01/25 00:57:01;;;;;;;86.97;39.77;;;1.60;99.90;;;;;;8260038;28;20199;-63
2023/01/25 01:01:01;;;;;;;83.70;37.77;;;1.70;99.90;;;;;;8264064;28;20218;-63
2023/01/25 01:05:02;;;;;;;81.67;40.20;;;1.70;99.90;;;;;;8265686;28;20191;-63
2023/01/25 01:09:05;;;;;;;73.73;36.00;;;1.70;99.90;;;;;;8262068;28;20206;-63
2023/01/25 01:13:07;;;;;;;73.10;34.57;;;1.70;99.90;;;;;;8260381;28;20183;-63
2023/01/25 01:17:07;;;;;;;77.53;38.60;;;1.60;99.90;;;;;;8263763;28;20220;-64
2023/01/25 01:21:10;;;;;;;67.07;32.63;;;1.70;99.90;;;;;;8260921;28;20267;-64
2023/01/25 01:25:12;;;;;;;56.43;29.30;;;1.60;99.90;;;;;;8266666;28;20195;-64
2023/01/25 01:29:13;;;;;;;76.27;36.83;;;1.60;99.90;;;;;;8264041;28;20189;-64
2023/01/25 01:33:14;;;;;;;70.00;35.70;;;1.70;99.90;;;;;;8261047;28;20196;-64
2023/01/25 01:37:15;;;;;;;66.53;32.77;;;1.70;99.90;;;;;;8262096;28;20207;-64
2023/01/25 01:41:17;;;;;;;64.27;31.20;;;1.70;99.90;;;;;;8270799;28;20235;-64
2023/01/25 01:45:55;;;;;;;55.87;28.27;;;1.70;99.90;;;;;;8264621;28;20241;-64
2023/01/25 01:50:03;;;;;;;63.70;29.00;;;1.70;99.90;;;;;;8259241;28;20203;-64
2023/01/25 01:54:19;;;;;;;50.53;26.37;;;1.70;99.90;;;;;;8262783;28;20291;-65
2023/01/25 01:58:20;;;;;;;73.07;34.93;;;1.70;99.90;;;;;;8272418;28;20207;-64
2023/01/25 02:02:23;;;;;;;69.57;34.70;;;1.70;99.90;;;;;;8269341;28;20179;-64
2023/01/25 02:06:33;;;;;;;78.10;36.77;;;1.70;99.90;;;;;;8271975;28;20193;-64
2023/01/25 02:10:35;;;;;;;68.47;32.03;;;1.70;99.90;;;;;;8272623;28;20188;-64
2023/01/25 02:14:39;;;;;;;79.40;37.40;;;1.70;99.90;;;;;;8280714;28;20222;-64
2023/01/25 02:18:40;;;;;;;78.27;35.03;;;1.70;99.90;;;;;;8267129;28;20210;-64
2023/01/25 02:23:09;;;;;;;72.00;32.83;;;1.80;99.90;;;;;;8272071;28;20294;-64
2023/01/25 02:27:09;;;;;;;71.73;33.10;;;1.80;99.90;;;;;;8271612;28;20188;-64
2023/01/25 02:31:10;;;;;;;75.73;32.90;;;1.70;99.90;;;;;;8270484;28;20187;-64
2023/01/25 02:35:20;;;;;;;78.47;36.30;;;1.70;99.90;;;;;;8269731;28;20211;-64
2023/01/25 02:39:25;;;;;;;74.43;35.37;;;1.70;99.90;;;;;;8280148;28;20207;-64
2023/01/25 02:43:31;;;;;;;64.33;29.87;;;1.70;99.90;;;;;;8265309;28;20180;-64
2023/01/25 02:47:32;;;;;;;68.40;33.60;;;1.70;99.90;;;;;;8270358;28;20274;-64
2023/01/25 02:51:36;;;;;;;68.53;32.73;;;1.70;99.90;;;;;;8266301;28;20179;-64
2023/01/25 02:55:37;;;;;;;64.37;31.43;;;1.70;99.90;;;;;;8265219;28;20298;-64
2023/01/25 02:59:38;;;;;;;66.70;31.90;;;1.70;99.90;;;;;;8265140;28;20207;-64
2023/01/25 03:03:40;;;;;;;72.00;32.87;;;1.70;99.90;;;;;;8264707;28;20209;-64
2023/01/25 03:07:41;;;;;;;63.10;29.50;;;1.70;99.90;;;;;;8262510;28;20218;-64
2023/01/25 03:11:41;;;;;;;53.97;29.03;;;1.70;99.90;;;;;;8265432;28;20180;-64
2023/01/25 03:15:42;;;;;;;53.90;27.60;;;1.70;99.90;;;;;;8268594;28;20328;-64
2023/01/25 03:19:43;;;;;;;56.43;27.97;;;1.70;99.90;;;;;;8265348;28;20190;-64
2023/01/25 03:23:45;;;;;;;57.60;29.00;;;1.70;99.90;;;;;;8269019;28;20197;-64
2023/01/25 03:27:47;;;;;;;60.67;28.80;;;1.70;99.90;;;;;;8262645;28;20179;-64
2023/01/25 03:31:48;;;;;;;57.27;28.20;;;1.70;99.90;;;;;;8262159;28;20276;-64
2023/01/25 03:35:53;;;;;;;57.53;26.73;;;1.70;99.90;;;;;;8268130;28;20211;-64
2023/01/25 03:39:53;;;;;;;53.93;27.10;;;1.70;99.90;;;;;;8267265;28;20553;-64
2023/01/25 03:43:54;;;;;;;56.83;26.07;;;1.70;99.90;;;;;;8264753;28;20270;-64
2023/01/25 03:47:55;;;;;;;49.17;23.83;;;1.70;99.90;;;;;;8264954;28;20199;-64
2023/01/25 03:51:56;;;;;;;84.33;41.80;;;1.70;99.90;;;;;;8265154;28;20200;-64
2023/01/25 03:56:00;;;;;;;62.40;28.33;;;1.70;99.90;;;;;;8266139;28;20199;-64
2023/01/25 04:00:01;;;;;;;66.03;31.43;;;1.70;99.90;;;;;;8264970;28;20191;-64
2023/01/25 04:04:02;;;;;;;60.97;27.97;;;1.70;99.90;;;;;;8266756;28;20259;-64
2023/01/25 04:08:03;;;;;;;56.97;25.73;;;1.70;99.90;;;;;;8266429;28;20250;-65
2023/01/25 04:12:04;;;;;;;45.97;23.00;;;1.70;99.90;;;;;;8270639;28;20278;-64
2023/01/25 04:16:06;;;;;;;50.10;23.30;;;1.70;99.90;;;;;;8264008;28;20213;-64
2023/01/25 04:20:08;;;;;;;43.37;21.57;;;1.70;99.90;;;;;;8264992;28;20176;-64
2023/01/25 04:24:09;;;;;;;54.30;25.70;;;1.70;99.90;;;;;;8264687;28;20184;-64
2023/01/25 04:28:09;;;;;;;94.37;40.03;;;1.70;99.90;;;;;;8268737;28;20194;-64
2023/01/25 04:32:10;;;;;;;84.77;38.70;;;1.70;99.90;;;;;;8262564;28;20184;-64
2023/01/25 04:36:11;;;;;;;74.37;38.00;;;1.70;99.90;;;;;;8265990;28;20222;-65
2023/01/25 04:40:12;;;;;;;55.83;26.13;;;1.80;99.90;;;;;;8263177;28;20297;-64
2023/01/25 04:44:13;;;;;;;45.57;22.47;;;1.70;99.90;;;;;;8263621;28;20184;-65
2023/01/25 04:48:14;;;;;;;43.47;21.90;;;1.70;99.90;;;;;;8262744;28;20202;-64
2023/01/25 04:52:15;;;;;;;42.70;18.70;;;1.70;99.90;;;;;;8263197;28;20198;-65
2023/01/25 04:56:15;;;;;;;42.07;18.93;;;1.70;99.90;;;;;;8268059;28;20284;-64
2023/01/25 05:00:17;;;;;;;36.47;17.47;;;1.70;99.90;;;;;;8259933;28;20183;-64
2023/01/25 05:04:18;;;;;;;42.83;19.40;;;1.70;99.90;;;;;;8268367;28;20180;-64
2023/01/25 05:08:19;;;;;;;43.27;19.27;;;1.70;99.90;;;;;;8264366;28;20242;-63
2023/01/25 05:12:20;;;;;;;40.93;19.23;;;1.70;99.90;;;;;;8262161;28;20180;-63
2023/01/25 05:16:21;;;;;;;59.80;26.23;;;1.70;99.90;;;;;;8264354;28;20239;-64
2023/01/25 05:20:21;;;;;;;39.53;20.30;;;1.70;99.90;;;;;;8269256;28;20187;-64
2023/01/25 05:24:23;;;;;;;43.53;20.73;;;1.70;99.90;;;;;;8262130;28;20207;-63
2023/01/25 05:28:24;;;;;;;41.87;19.47;;;1.70;99.90;;;;;;8269594;28;20286;-64
2023/01/25 05:32:25;;;;;;;38.43;18.20;;;1.70;99.90;;;;;;8269044;28;20191;-63
2023/01/25 05:36:26;;;;;;;31.40;15.93;;;1.70;99.90;;;;;;8268344;28;20223;-64
2023/01/25 05:40:27;;;;;;;36.20;16.07;;;1.60;99.90;;;;;;8276308;28;20195;-64
2023/01/25 05:44:28;;;;;;;30.40;15.80;;;1.70;99.90;;;;;;8267297;28;20218;-64
2023/01/25 05:48:28;;;;;;;28.00;14.00;;;1.60;99.90;;;;;;8269983;28;20194;-64
2023/01/25 05:52:29;;;;;;;29.57;14.63;;;1.60;99.90;;;;;;8267130;28;20198;-63
2023/01/25 05:56:31;;;;;;;28.57;15.33;;;1.60;99.90;;;;;;8269057;28;20694;-64
2023/01/25 06:00:31;;;;;;;26.97;15.70;;;1.60;99.90;;;;;;8269440;28;20191;-64
2023/01/25 06:04:32;;;;;;;25.87;13.40;;;1.60;99.90;;;;;;8272232;28;20200;-64
2023/01/25 06:08:34;;;;;;;30.03;14.87;;;1.60;99.90;;;;;;8270305;28;20192;-64
2023/01/25 06:12:35;;;;;;;27.33;13.53;;;1.60;99.90;;;;;;8273333;28;20192;-65
2023/01/25 06:16:36;;;;;;;33.20;15.67;;;1.70;99.90;;;;;;8269064;28;20266;-64
2023/01/25 06:20:37;;;;;;;30.17;15.07;;;1.60;99.90;;;;;;8270384;28;20276;-65
2023/01/25 06:24:38;;;;;;;26.87;13.53;;;1.60;99.90;;;;;;8273805;28;20208;-64
2023/01/25 06:28:39;;;;;;;25.00;12.40;;;1.60;99.90;;;;;;8268083;28;20198;-64
2023/01/25 06:32:39;;;;;;;23.67;13.13;;;1.50;99.90;;;;;;8271043;28;20195;-64
2023/01/25 06:36:40;;;;;;;38.30;19.17;;;1.50;99.90;;;;;;8265384;28;20215;-64
2023/01/25 06:40:41;;;;;;;33.20;20.73;;;1.60;99.90;;;;;;8266279;28;20327;-64
2023/01/25 06:44:42;;;;;;;30.70;21.67;;;1.60;99.90;;;;;;8263348;28;20198;-64
2023/01/25 06:48:42;;;;;;;17.30;12.50;;;1.60;99.90;;;;;;8268077;28;20284;-64
2023/01/25 06:52:53;;;;;;;27.43;16.80;;;1.60;99.90;;;;;;8267718;28;20202;-64
2023/01/25 06:56:54;;;;;;;46.83;30.30;;;1.60;99.90;;;;;;8273154;28;20222;-69
2023/01/25 07:01:19;;;;;;;48.50;30.47;;;1.60;99.90;;;;;;8263479;28;20187;-69
2023/01/25 07:05:20;;;;;;;172.60;84.73;;;1.70;99.90;;;;;;8265860;28;20192;-72
2023/01/25 07:09:23;;;;;;;103.43;48.87;;;1.70;99.90;;;;;;8264013;28;20184;-68
2023/01/25 07:13:26;;;;;;;41.60;25.50;;;1.80;99.90;;;;;;8266656;28;20202;-73
2023/01/25 07:17:27;;;;;;;25.00;14.63;;;1.80;99.90;;;;;;8282533;28;20228;-70
2023/01/25 07:21:28;;;;;;;25.77;16.03;;;1.80;99.90;;;;;;8279091;28;20187;-72
2023/01/25 07:25:29;;;;;;;30.53;21.93;;;1.80;99.90;;;;;;8277379;28;20290;-71
2023/01/25 07:29:30;;;;;;;18.90;13.43;;;1.80;99.90;;;;;;8279671;28;20528;-73
2023/01/25 07:33:32;;;;;;;20.73;12.53;;;1.70;99.90;;;;;;8278585;28;20210;-71
2023/01/25 07:37:33;;;;;;;22.30;13.73;;;1.70;99.90;;;;;;8272184;28;20309;-71
2023/01/25 07:41:34;;;;;;;18.83;10.83;;;1.70;99.90;;;;;;8280246;28;20209;-72
2023/01/25 07:45:35;;;;;;;18.93;11.60;;;1.70;99.90;;;;;;8269276;28;20191;-72
2023/01/25 07:49:36;;;;;;;27.07;17.63;;;1.70;99.90;;;;;;8282458;28;20206;-73
2023/01/25 07:53:44;;;;;;;18.63;11.97;;;1.70;99.90;;;;;;8275945;28;20188;-70
2023/01/25 07:57:46;;;;;;;24.30;12.60;;;1.70;99.90;;;;;;8276940;28;20210;-73
2023/01/25 08:01:47;;;;;;;24.93;13.07;;;1.70;99.90;;;;;;8271082;28;20183;-74
2023/01/25 08:05:48;;;;;;;20.80;13.90;;;1.60;99.90;;;;;;8274510;28;20203;-73
2023/01/25 08:09:49;;;;;;;40.77;17.80;;;1.60;99.90;;;;;;8277270;28;20183;-75
2023/01/25 08:13:50;;;;;;;16.60;9.93;;;1.70;99.90;;;;;;8269689;28;20175;-75
2023/01/25 08:17:51;;;;;;;25.43;13.33;;;1.70;99.90;;;;;;8272433;28;20269;-73
2023/01/25 08:21:52;;;;;;;19.03;12.53;;;1.80;99.90;;;;;;8276982;28;20206;-74
2023/01/25 08:25:53;;;;;;;48.80;20.07;;;1.80;99.90;;;;;;8274186;28;20198;-73
2023/01/25 08:29:54;;;;;;;24.67;13.33;;;1.80;99.90;;;;;;8275340;28;20207;-69
2023/01/25 08:33:55;;;;;;;15.30;9.73;;;1.90;99.90;;;;;;8262109;28;20202;-69
2023/01/25 08:37:56;;;;;;;16.20;10.30;;;1.80;99.90;;;;;;8266201;28;20238;-69
2023/01/25 08:41:57;;;;;;;15.77;10.57;;;1.80;99.90;;;;;;8267918;28;20743;-69
2023/01/25 08:46:00;;;;;;;17.53;10.73;;;1.80;99.90;;;;;;8278412;28;20183;-73
2023/01/25 08:50:01;;;;;;;17.77;11.07;;;1.80;99.90;;;;;;8277354;28;20263;-74
2023/01/25 08:54:07;;;;;;;14.53;9.73;;;1.80;99.90;;;;;;8261212;28;20183;-73
2023/01/25 08:58:12;;;;;;;14.47;9.53;;;1.90;99.90;;;;;;8275122;28;20211;-73
2023/01/25 09:02:13;;;;;;;15.30;9.83;;;1.90;99.90;;;;;;8274910;28;20194;-74
2023/01/25 09:06:16;;;;;;;13.97;9.63;;;1.90;99.90;;;;;;8286354;28;20198;-74
2023/01/25 09:10:17;;;;;;;14.80;9.57;;;1.90;99.90;;;;;;8285341;28;20195;-73
2023/01/25 09:14:18;;;;;;;11.03;8.50;;;1.90;99.90;;;;;;8285455;28;20280;-74
2023/01/25 09:18:19;;;;;;;11.67;8.03;;;1.90;99.90;;;;;;8291466;28;20207;-72
2023/01/25 09:22:19;;;;;;;13.27;8.87;;;2.00;99.90;;;;;;8289098;28;20214;-73
2023/01/25 09:26:20;;;;;;;15.53;8.80;;;2.00;99.90;;;;;;8285758;28;20399;-74
2023/01/25 09:30:21;;;;;;;26.17;11.13;;;2.00;99.90;;;;;;8283611;28;20227;-73
2023/01/25 09:34:22;;;;;;;14.17;9.63;;;2.10;99.90;;;;;;8287267;28;20207;-74
2023/01/25 09:38:23;;;;;;;13.57;8.30;;;2.00;99.90;;;;;;8284359;28;20218;-74
2023/01/25 09:42:51;;;;;;;12.10;7.83;;;2.00;99.90;;;;;;8290879;28;20187;-73
2023/01/25 09:46:57;;;;;;;10.57;7.60;;;2.10;99.90;;;;;;8281891;28;20188;-71
2023/01/25 09:51:28;;;;;;;14.27;7.57;;;2.20;99.90;;;;;;8283347;28;20195;-72
2023/01/25 09:55:30;;;;;;;9.97;6.77;;;2.30;99.90;;;;;;8287276;28;20188;-72
2023/01/25 09:59:33;;;;;;;12.93;7.23;;;2.30;99.90;;;;;;8278640;28;20258;-73
2023/01/25 10:03:51;;;;;;;16.87;10.50;;;2.40;99.90;;;;;;8291181;28;20274;-73
2023/01/25 10:07:57;;;;;;;10.47;7.37;;;2.50;99.90;;;;;;8285869;28;20192;-73
2023/01/25 10:12:22;;;;;;;11.13;6.67;;;2.60;99.90;;;;;;8278718;28;20246;-72
2023/01/25 10:16:45;;;;;;;9.67;6.53;;;2.70;99.90;;;;;;8285890;28;20228;-73
2023/01/25 10:20:56;;;;;;;10.87;7.77;;;2.70;99.90;;;;;;8282951;28;20216;-73
2023/01/25 10:25:33;;;;;;;11.67;7.67;;;2.60;99.90;;;;;;8281620;28;20179;-73
2023/01/25 10:29:36;;;;;;;12.33;8.07;;;2.60;99.90;;;;;;8276641;28;20207;-73
2023/01/25 10:33:45;;;;;;;12.70;8.37;;;2.60;99.90;;;;;;8278701;28;20195;-73
2023/01/25 10:37:46;;;;;;;12.07;8.43;;;2.60;99.90;;;;;;8277545;28;20223;-71
2023/01/25 10:41:54;;;;;;;10.80;7.70;;;2.70;99.90;;;;;;8284148;28;20229;-73
2023/01/25 10:45:55;;;;;;;11.50;8.27;;;2.70;99.90;;;;;;8283143;28;21172;-72
2023/01/25 10:49:58;;;;;;;16.40;11.47;;;2.70;99.90;;;;;;8276611;28;20194;-74
2023/01/25 10:54:02;;;;;;;15.43;10.20;;;2.70;99.90;;;;;;8271058;28;20269;-73
2023/01/25 10:58:03;;;;;;;14.23;9.40;;;2.70;99.90;;;;;;8277376;28;20207;-71
2023/01/25 11:02:40;;;;;;;11.33;7.73;;;2.70;99.90;;;;;;8276055;28;20191;-72
2023/01/25 11:06:49;;;;;;;10.93;8.00;;;2.70;99.90;;;;;;8269251;28;20222;-73
2023/01/25 11:10:51;;;;;;;12.23;8.63;;;2.70;99.90;;;;;;8270199;28;20182;-71
2023/01/25 11:14:52;;;;;;;12.27;7.90;;;2.70;99.90;;;;;;8273300;28;20184;-73
2023/01/25 11:18:55;;;;;;;10.83;7.53;;;2.80;99.90;;;;;;8278638;28;20229;-72
2023/01/25 11:22:56;;;;;;;13.87;9.50;;;2.80;99.90;;;;;;8270251;28;20281;-73
2023/01/25 11:27:18;;;;;;;15.40;9.23;;;2.80;99.90;;;;;;8273432;28;20191;-72
2023/01/25 11:31:21;;;;;;;12.83;8.77;;;2.80;99.90;;;;;;8281355;28;20187;-73
2023/01/25 11:35:30;;;;;;;11.97;8.37;;;2.70;99.90;;;;;;8279415;28;20258;-74
2023/01/25 11:39:42;;;;;;;12.70;8.70;;;2.60;99.90;;;;;;8267982;28;20269;-72
2023/01/25 11:43:49;;;;;;;11.03;7.93;;;2.60;99.90;;;;;;8274943;28;20250;-72
2023/01/25 11:48:31;;;;;;;11.53;7.33;;;2.60;99.90;;;;;;8282388;28;20234;-72
2023/01/25 11:53:00;;;;;;;9.20;6.83;;;2.70;99.90;;;;;;8275955;28;20199;-73
2023/01/25 11:57:37;;;;;;;9.97;7.47;;;2.70;99.90;;;;;;8281247;28;20219;-68
2023/01/25 12:01:53;;;;;;;10.10;8.00;;;2.80;99.90;;;;;;8267914;28;20184;-68
2023/01/25 12:06:12;;;;;;;11.17;7.63;;;2.70;99.90;;;;;;8265832;28;20186;-68
2023/01/25 12:10:40;;;;;;;10.60;7.50;;;2.80;99.90;;;;;;8263677;28;20186;-68
2023/01/25 12:15:07;;;;;;;9.30;7.13;;;2.70;99.90;;;;;;8267701;28;20220;-69
2023/01/25 12:19:32;;;;;;;11.70;7.90;;;2.70;99.90;;;;;;8254369;28;20306;-70
2023/01/25 12:23:56;;;;;;;14.33;8.00;;;2.70;99.90;;;;;;8261307;28;20193;-68
2023/01/25 12:28:19;;;;;;;13.80;8.73;;;2.80;99.90;;;;;;8266271;28;20188;-68
2023/01/25 12:32:36;;;;;;;11.23;8.20;;;2.80;99.90;;;;;;8280541;28;20190;-68
2023/01/25 12:36:44;;;;;;;11.43;8.07;;;2.90;99.90;;;;;;8262279;28;20223;-68
2023/01/25 12:40:58;;;;;;;11.97;8.10;;;2.90;99.90;;;;;;8268058;28;20782;-68
2023/01/25 12:45:14;;;;;;;11.30;7.80;;;2.80;99.90;;;;;;8263639;28;20260;-68
2023/01/25 12:49:35;;;;;;;12.87;8.53;;;2.70;99.90;;;;;;8260394;28;20194;-68
2023/01/25 12:53:47;;;;;;;13.03;8.63;;;2.70;99.90;;;;;;8261809;28;20218;-68
2023/01/25 12:57:54;;;;;;;12.67;8.83;;;2.70;99.90;;;;;;8261781;28;20210;-68
2023/01/25 13:02:33;;;;;;;14.07;9.20;;;2.70;99.90;;;;;;8266068;28;20180;-68
2023/01/25 13:06:52;;;;;;;15.17;10.20;;;2.70;99.90;;;;;;8248645;28;20253;-68
2023/01/25 13:11:24;;;;;;;13.37;8.87;;;2.70;99.90;;;;;;8266197;28;20184;-68
2023/01/25 13:15:43;;;;;;;13.43;8.90;;;2.70;99.90;;;;;;8268658;28;20310;-68
2023/01/25 13:19:44;;;;;;;11.50;7.77;;;2.70;99.90;;;;;;8274220;28;20442;-68
2023/01/25 13:23:49;;;;;;;14.57;9.37;;;2.70;99.90;;;;;;8263242;28;20189;-69
2023/01/25 13:27:50;;;;;;;17.00;10.73;;;2.60;99.90;;;;;;8261500;28;20187;-73
2023/01/25 13:31:53;;;;;;;17.60;9.97;;;2.60;99.90;;;;;;8278721;28;20294;-74
2023/01/25 13:35:54;;;;;;;15.27;9.77;;;2.60;99.90;;;;;;8278928;28;20201;-73
2023/01/25 13:39:58;;;;;;;12.93;9.13;;;2.40;99.90;;;;;;8278936;28;20239;-71
2023/01/25 13:44:27;;;;;;;15.27;9.73;;;2.30;99.90;;;;;;8275235;28;20186;-73
2023/01/25 13:48:29;;;;;;;12.90;9.00;;;2.30;99.90;;;;;;8283087;28;20245;-73
2023/01/25 13:52:31;;;;;;;13.87;9.33;;;2.40;99.90;;;;;;8277056;28;20199;-71
2023/01/25 13:56:34;;;;;;;11.83;8.57;;;2.40;99.90;;;;;;8279597;28;20258;-72
2023/01/25 14:00:36;;;;;;;14.93;9.27;;;2.40;99.90;;;;;;8276589;28;20284;-73
2023/01/25 14:04:37;;;;;;;14.93;9.37;;;2.40;99.90;;;;;;8283873;28;20616;-73
2023/01/25 14:08:38;;;;;;;14.37;9.37;;;2.40;99.90;;;;;;8277090;28;20230;-73
2023/01/25 14:12:41;;;;;;;13.80;8.70;;;2.30;99.90;;;;;;8276273;28;20178;-75
2023/01/25 14:16:43;;;;;;;13.10;8.80;;;2.30;99.90;;;;;;8277724;28;20203;-73
2023/01/25 14:20:46;;;;;;;15.13;9.23;;;2.30;99.90;;;;;;8276530;28;20183;-73
2023/01/25 14:25:10;;;;;;;14.23;9.10;;;2.30;99.90;;;;;;8280979;28;20195;-73
2023/01/25 14:29:18;;;;;;;16.13;8.77;;;2.30;99.90;;;;;;8285580;28;20271;-73
2023/01/25 14:33:21;;;;;;;14.47;9.63;;;2.20;99.90;;;;;;8282968;28;20244;-74
2023/01/25 14:37:22;;;;;;;13.47;9.37;;;2.20;99.90;;;;;;8278010;28;20218;-73
2023/01/25 14:41:32;;;;;;;14.83;9.20;;;2.20;99.90;;;;;;8275422;28;20294;-72
2023/01/25 14:45:33;;;;;;;15.70;9.80;;;2.10;99.90;;;;;;8273028;28;20246;-72
2023/01/25 14:49:34;;;;;;;14.87;9.63;;;2.10;99.90;;;;;;8278829;28;20216;-71
2023/01/25 14:53:43;;;;;;;13.80;9.93;;;2.10;99.90;;;;;;8273646;28;20247;-73
2023/01/25 14:57:45;;;;;;;16.63;9.77;;;2.10;99.90;;;;;;8278009;28;20220;-72
2023/01/25 15:01:49;;;;;;;12.80;9.07;;;2.10;99.90;;;;;;8271581;28;20191;-73
2023/01/25 15:05:50;;;;;;;14.93;8.97;;;2.00;99.90;;;;;;8274832;28;21351;-72
2023/01/25 15:10:25;;;;;;;11.17;8.07;;;2.00;99.90;;;;;;8273681;28;20191;-73
2023/01/25 15:14:27;;;;;;;10.67;7.93;;;1.90;99.90;;;;;;8275150;28;20302;-72
2023/01/25 15:18:52;;;;;;;11.23;7.67;;;1.80;99.90;;;;;;8255087;28;20253;-73
2023/01/25 15:22:54;;;;;;;12.87;7.43;;;1.80;99.90;;;;;;8268663;28;20200;-73
2023/01/25 15:26:55;;;;;;;11.70;7.53;;;1.70;99.90;;;;;;8277000;28;20185;-73
2023/01/25 15:30:58;;;;;;;11.97;7.50;;;1.70;99.90;;;;;;8271805;28;20193;-73
2023/01/25 15:34:59;;;;;;;12.73;7.97;;;1.70;99.90;;;;;;8269796;28;20210;-73
2023/01/25 15:39:00;;;;;;;11.37;8.03;;;1.70;99.90;;;;;;8270887;28;20219;-74
2023/01/25 15:43:01;;;;;;;12.97;7.70;;;1.60;99.90;;;;;;8278382;28;20184;-73
2023/01/25 15:47:02;;;;;;;13.97;7.77;;;1.60;99.90;;;;;;8271715;28;20184;-73
2023/01/25 15:51:03;;;;;;;12.63;8.13;;;1.60;99.90;;;;;;8272345;28;20197;-73
2023/01/25 15:55:05;;;;;;;11.23;7.77;;;1.60;99.90;;;;;;8275030;28;20206;-74
2023/01/25 15:59:12;;;;;;;13.63;8.40;;;1.60;99.90;;;;;;8299358;28;20225;-70
2023/01/25 16:03:13;;;;;;;11.60;7.33;;;1.60;99.90;;;;;;8307987;28;20184;-68
2023/01/25 16:07:26;;;;;;;13.67;7.57;;;1.50;99.90;;;;;;8262370;28;20179;-69
2023/01/25 16:11:27;;;;;;;12.77;7.73;;;1.50;99.90;;;;;;8259054;28;20184;-68
2023/01/25 16:15:28;;;;;;;10.43;7.53;;;1.40;99.90;;;;;;8269453;28;20262;-68
2023/01/25 16:19:29;;;;;;;13.67;8.10;;;1.40;99.90;;;;;;8263449;28;20211;-68
2023/01/25 16:23:30;;;;;;;13.10;8.30;;;1.30;99.90;;;;;;8261561;28;20190;-69
2023/01/25 16:27:34;;;;;;;15.63;9.50;;;1.30;99.90;;;;;;8270007;28;20193;-70
2023/01/25 16:31:35;;;;;;;13.00;8.23;;;1.20;99.90;;;;;;8263967;28;20175;-69
2023/01/25 16:35:36;;;;;;;15.20;9.60;;;1.20;99.90;;;;;;8267349;28;20260;-70
2023/01/25 16:39:37;;;;;;;14.10;8.87;;;1.20;99.90;;;;;;8262487;28;20207;-69
2023/01/25 16:43:42;;;;;;;15.47;9.60;;;1.20;99.90;;;;;;8263696;28;20179;-69
2023/01/25 16:47:43;;;;;;;17.00;10.80;;;1.20;99.90;;;;;;8267002;28;20270;-69
2023/01/25 16:51:48;;;;;;;16.73;10.27;;;1.20;99.90;;;;;;8264435;28;20205;-70
2023/01/25 16:55:50;;;;;;;14.87;10.00;;;1.20;99.90;;;;;;8264234;28;20799;-69
2023/01/25 16:59:51;;;;;;;18.77;11.33;;;1.20;99.90;;;;;;8268667;28;20245;-68
2023/01/25 17:03:54;;;;;;;18.27;11.20;;;1.20;99.90;;;;;;8267403;28;20191;-67
2023/01/25 17:07:55;;;;;;;19.30;11.77;;;1.20;99.90;;;;;;8263556;28;20226;-69
2023/01/25 17:11:56;;;;;;;17.47;10.57;;;1.20;99.90;;;;;;8268241;28;20187;-69
2023/01/25 17:15:58;;;;;;;18.77;11.97;;;1.30;99.90;;;;;;8260464;28;20184;-68
2023/01/25 17:19:59;;;;;;;19.07;11.67;;;1.20;99.90;;;;;;8262241;28;20261;-69
2023/01/25 17:24:01;;;;;;;18.53;11.27;;;1.20;99.90;;;;;;8266207;28;20180;-68
2023/01/25 17:28:01;;;;;;;15.57;10.73;;;1.20;99.90;;;;;;8274341;28;20190;-69
2023/01/25 17:32:02;;;;;;;18.93;11.03;;;1.20;99.90;;;;;;8271720;28;20180;-69
2023/01/25 17:36:04;;;;;;;16.97;10.67;;;1.20;99.90;;;;;;8265923;28;20206;-69
2023/01/25 17:40:05;;;;;;;17.37;11.77;;;1.20;99.90;;;;;;8271391;28;20218;-69
2023/01/25 17:44:06;;;;;;;17.53;10.63;;;1.20;99.90;;;;;;8271371;28;20203;-69
2023/01/25 17:48:07;;;;;;;20.63;11.13;;;1.10;99.90;;;;;;8275705;28;20179;-69
2023/01/25 17:52:09;;;;;;;15.50;10.60;;;1.10;99.90;;;;;;8272315;28;20400;-69
2023/01/25 17:56:11;;;;;;;24.47;13.03;;;1.10;99.90;;;;;;8272449;28;20326;-68
2023/01/25 18:00:13;;;;;;;21.53;11.50;;;1.10;99.90;;;;;;8268588;28;20204;-69
2023/01/25 18:04:16;;;;;;;21.57;11.00;;;1.00;99.90;;;;;;8268161;28;20183;-67
2023/01/25 18:08:17;;;;;;;18.33;10.53;;;1.00;99.90;;;;;;8272746;28;20239;-67
2023/01/25 18:12:18;;;;;;;21.10;10.17;;;1.00;99.90;;;;;;8267788;28;20215;-67
2023/01/25 18:16:22;;;;;;;17.50;9.97;;;1.10;99.90;;;;;;8272920;28;20179;-68
2023/01/25 18:20:23;;;;;;;20.57;10.57;;;1.10;99.90;;;;;;8270886;28;20223;-68
2023/01/25 18:24:32;;;;;;;16.57;9.97;;;1.10;99.90;;;;;;8267558;28;20180;-69
2023/01/25 18:28:33;;;;;;;18.27;9.60;;;1.10;99.90;;;;;;8268151;28;20191;-69
2023/01/25 18:32:34;;;;;;;15.27;10.27;;;1.10;99.90;;;;;;8263591;28;20187;-68
2023/01/25 18:36:35;;;;;;;15.50;9.67;;;1.10;99.90;;;;;;8273039;28;20334;-69
2023/01/25 18:40:36;;;;;;;17.80;9.90;;;1.10;99.90;;;;;;8270797;28;20238;-69
2023/01/25 18:44:37;;;;;;;15.03;9.90;;;1.00;99.90;;;;;;8268904;28;20180;-69
2023/01/25 18:48:38;;;;;;;18.53;10.83;;;1.00;99.90;;;;;;8270116;28;20183;-69
2023/01/25 18:52:39;;;;;;;21.70;11.80;;;1.00;99.90;;;;;;8267055;28;20187;-68
2023/01/25 18:56:40;;;;;;;21.67;12.43;;;1.00;99.90;;;;;;8265968;28;20234;-69
2023/01/25 19:00:41;;;;;;;18.77;10.27;;;1.00;99.90;;;;;;8266541;28;20186;-70
2023/01/25 19:04:42;;;;;;;19.57;11.43;;;1.00;99.90;;;;;;8270875;28;20179;-68
2023/01/25 19:08:48;;;;;;;22.47;11.97;;;1.00;99.90;;;;;;8266853;28;20190;-68
2023/01/25 19:12:49;;;;;;;18.90;10.20;;;0.90;99.90;;;;;;8270941;28;20192;-67
2023/01/25 19:16:51;;;;;;;14.40;9.80;;;1.00;99.90;;;;;;8265113;28;20204;-69
2023/01/25 19:20:52;;;;;;;14.43;9.23;;;1.00;99.90;;;;;;8265772;28;20179;-68
2023/01/25 19:24:53;;;;;;;21.40;11.77;;;1.00;99.90;;;;;;8263632;28;20278;-69
2023/01/25 19:28:56;;;;;;;20.73;11.37;;;1.00;99.90;;;;;;8268185;28;20188;-69
2023/01/25 19:32:56;;;;;;;22.23;12.27;;;1.00;99.90;;;;;;8271589;28;20190;-67
2023/01/25 19:36:57;;;;;;;19.67;12.07;;;1.00;99.90;;;;;;8268481;28;20383;-69
2023/01/25 19:41:03;;;;;;;19.97;11.07;;;1.10;99.90;;;;;;8266463;28;20195;-69
2023/01/25 19:45:05;;;;;;;19.50;10.90;;;1.00;99.90;;;;;;8281849;28;20191;-69
2023/01/25 19:49:07;;;;;;;20.50;11.83;;;1.00;99.90;;;;;;8265881;28;20182;-68
2023/01/25 19:53:08;;;;;;;19.17;10.53;;;1.00;99.90;;;;;;8268436;28;20195;-68
2023/01/25 19:57:09;;;;;;;16.90;11.37;;;1.00;99.90;;;;;;8265341;28;20548;-67
2023/01/25 20:01:16;;;;;;;19.07;10.93;;;1.00;99.90;;;;;;8263961;28;20443;-69
2023/01/25 20:05:17;;;;;;;20.70;11.27;;;1.00;99.90;;;;;;8264455;28;20193;-69
2023/01/25 20:09:19;;;;;;;21.17;12.40;;;1.00;99.90;;;;;;8267753;28;20188;-70
2023/01/25 20:13:20;;;;;;;21.93;11.40;;;1.00;99.90;;;;;;8269998;28;20184;-68
2023/01/25 20:17:20;;;;;;;19.80;12.63;;;1.00;99.90;;;;;;8265104;28;20213;-67
2023/01/25 20:21:24;;;;;;;18.27;10.23;;;1.00;99.90;;;;;;8266829;28;20190;-69
2023/01/25 20:25:24;;;;;;;19.83;11.50;;;1.00;99.90;;;;;;8264947;28;20187;-67
2023/01/25 20:29:27;;;;;;;20.63;11.53;;;1.00;99.90;;;;;;8268161;28;20225;-69
2023/01/25 20:33:32;;;;;;;20.83;11.83;;;0.90;99.90;;;;;;8268434;28;20195;-68
2023/01/25 20:37:33;;;;;;;19.33;11.80;;;0.90;99.90;;;;;;8264208;28;20216;-69
2023/01/25 20:41:34;;;;;;;18.13;10.27;;;0.90;99.90;;;;;;8259778;28;20202;-69
2023/01/25 20:45:37;;;;;;;20.20;10.93;;;0.90;99.90;;;;;;8269359;28;20246;-69
2023/01/25 20:49:37;;;;;;;24.93;12.17;;;0.80;99.90;;;;;;8264247;28;20195;-69
2023/01/25 20:53:40;;;;;;;20.60;10.90;;;0.80;99.90;;;;;;8265883;28;20230;-69
2023/01/25 20:57:41;;;;;;;18.70;10.77;;;0.70;99.90;;;;;;8262053;28;20200;-69
2023/01/25 21:01:41;;;;;;;19.07;10.00;;;0.70;99.90;;;;;;8261881;28;20191;-69